sensor_id;sensor_type;location;lat;lon;timestamp;P1;durP1;ratioP1;P2;durP2;ratioP2
1747;SDS011;871;47.034;15.394;2023-05-19T04:03:02;48.27;;;8.93;;
1747;SDS011;871;47.034;15.394;2023-05-19T04:08:59;46.73;;;9.63;;
1747;SDS011;871;47.034;15.394;2023-05-19T04:11:41;48.40;;;10.10;;
1747;SDS011;871;47.034;15.394;2023-05-19T04:17:31;49.77;;;9.97;;
1747;SDS011;871;47.034;15.394;2023-05-19T04:20:03;50.37;;;10.17;;
1747;SDS011;871;47.034;15.394;2023-05-19T04:22:38;50.30;;;9.97;;
1747;SDS011;871;47.034;15.394;2023-05-19T04:25:10;48.00;;;9.50;;
1747;SDS011;871;47.034;15.394;2023-05-19T04:27:46;47.07;;;9.73;;
1747;SDS011;871;47.034;15.394;2023-05-19T04:30:16;51.97;;;10.37;;
1747;SDS011;871;47.034;15.394;2023-05-19T04:33:01;49.10;;;9.57;;
1747;SDS011;871;47.034;15.394;2023-05-19T04:35:40;49.30;;;9.70;;
1747;SDS011;871;47.034;15.394;2023-05-19T04:47:13;50.03;;;9.17;;
1747;SDS011;871;47.034;15.394;2023-05-19T04:50:06;50.23;;;11.13;;
1747;SDS011;871;47.034;15.394;2023-05-19T04:52:34;48.37;;;10.20;;
1747;SDS011;871;47.034;15.394;2023-05-19T04:58:05;49.03;;;11.07;;
1747;SDS011;871;47.034;15.394;2023-05-19T05:00:54;49.17;;;10.37;;
1747;SDS011;871;47.034;15.394;2023-05-19T05:03:20;53.90;;;9.67;;
1747;SDS011;871;47.034;15.394;2023-05-19T05:08:58;58.10;;;10.30;;
1747;SDS011;871;47.034;15.394;2023-05-19T05:11:44;50.20;;;10.17;;
1747;SDS011;871;47.034;15.394;2023-05-19T05:14:19;49.13;;;9.53;;
1747;SDS011;871;47.034;15.394;2023-05-19T05:20:00;48.43;;;11.20;;
1747;SDS011;871;47.034;15.394;2023-05-19T05:22:35;49.57;;;10.20;;
1747;SDS011;871;47.034;15.394;2023-05-19T05:25:24;51.97;;;10.50;;
1747;SDS011;871;47.034;15.394;2023-05-19T05:27:59;49.23;;;10.20;;
1747;SDS011;871;47.034;15.394;2023-05-19T05:30:43;55.47;;;10.80;;
1747;SDS011;871;47.034;15.394;2023-05-19T05:33:19;50.10;;;11.20;;
1747;SDS011;871;47.034;15.394;2023-05-19T05:35:54;50.80;;;10.83;;
1747;SDS011;871;47.034;15.394;2023-05-19T05:38:34;49.30;;;10.70;;
1747;SDS011;871;47.034;15.394;2023-05-19T05:41:08;46.87;;;9.90;;
1747;SDS011;871;47.034;15.394;2023-05-19T05:43:43;62.83;;;11.10;;
1747;SDS011;871;47.034;15.394;2023-05-19T05:46:18;48.70;;;9.90;;
1747;SDS011;871;47.034;15.394;2023-05-19T05:48:59;51.80;;;9.10;;
1747;SDS011;871;47.034;15.394;2023-05-19T05:51:28;49.87;;;9.93;;
1747;SDS011;871;47.034;15.394;2023-05-19T05:53:58;49.10;;;10.00;;
1747;SDS011;871;47.034;15.394;2023-05-19T05:59:47;50.50;;;9.50;;
1747;SDS011;871;47.034;15.394;2023-05-19T06:02:42;54.80;;;10.93;;
1747;SDS011;871;47.034;15.394;2023-05-19T06:07:47;51.57;;;8.97;;
1747;SDS011;871;47.034;15.394;2023-05-19T06:13:27;51.00;;;10.33;;
1747;SDS011;871;47.034;15.394;2023-05-19T06:16:17;52.33;;;9.90;;
1747;SDS011;871;47.034;15.394;2023-05-19T06:19:03;51.10;;;10.77;;
1747;SDS011;871;47.034;15.394;2023-05-19T06:21:42;45.23;;;8.97;;
1747;SDS011;871;47.034;15.394;2023-05-19T06:24:17;57.10;;;9.83;;
1747;SDS011;871;47.034;15.394;2023-05-19T06:26:43;49.03;;;9.70;;
1747;SDS011;871;47.034;15.394;2023-05-19T06:29:44;53.73;;;10.70;;
1747;SDS011;871;47.034;15.394;2023-05-19T06:35:25;48.00;;;11.03;;
1747;SDS011;871;47.034;15.394;2023-05-19T06:41:03;56.23;;;11.53;;
1747;SDS011;871;47.034;15.394;2023-05-19T06:43:34;52.33;;;10.23;;
1747;SDS011;871;47.034;15.394;2023-05-19T06:46:17;50.87;;;11.40;;
1747;SDS011;871;47.034;15.394;2023-05-19T06:49:06;50.90;;;10.30;;
1747;SDS011;871;47.034;15.394;2023-05-19T06:54:32;51.53;;;10.90;;
1747;SDS011;871;47.034;15.394;2023-05-19T07:00:12;52.63;;;10.80;;
1747;SDS011;871;47.034;15.394;2023-05-19T07:02:47;47.80;;;9.97;;
1747;SDS011;871;47.034;15.394;2023-05-19T07:05:37;46.17;;;10.57;;
1747;SDS011;871;47.034;15.394;2023-05-19T07:08:11;50.50;;;9.60;;
1747;SDS011;871;47.034;15.394;2023-05-19T07:14:11;49.20;;;10.83;;
1747;SDS011;871;47.034;15.394;2023-05-19T07:16:47;54.03;;;9.97;;
1747;SDS011;871;47.034;15.394;2023-05-19T07:19:25;47.30;;;8.97;;
1747;SDS011;871;47.034;15.394;2023-05-19T07:21:58;49.33;;;9.60;;
1747;SDS011;871;47.034;15.394;2023-05-19T07:30:33;46.13;;;9.23;;
1747;SDS011;871;47.034;15.394;2023-05-19T07:33:17;49.93;;;10.03;;
1747;SDS011;871;47.034;15.394;2023-05-19T07:36:05;53.60;;;11.43;;
1747;SDS011;871;47.034;15.394;2023-05-19T07:41:45;46.90;;;9.20;;
1747;SDS011;871;47.034;15.394;2023-05-19T07:44:19;50.07;;;9.20;;
1747;SDS011;871;47.034;15.394;2023-05-19T07:49:24;52.50;;;8.80;;
1747;SDS011;871;47.034;15.394;2023-05-19T07:52:14;47.40;;;10.47;;
1747;SDS011;871;47.034;15.394;2023-05-19T07:54:42;47.27;;;8.40;;
1747;SDS011;871;47.034;15.394;2023-05-19T07:57:12;48.20;;;8.50;;
1747;SDS011;871;47.034;15.394;2023-05-19T07:59:46;53.40;;;9.20;;
1747;SDS011;871;47.034;15.394;2023-05-19T08:02:48;53.93;;;10.00;;
1747;SDS011;871;47.034;15.394;2023-05-19T08:05:25;48.00;;;9.20;;
1747;SDS011;871;47.034;15.394;2023-05-19T08:08:17;61.93;;;9.73;;
1747;SDS011;871;47.034;15.394;2023-05-19T08:10:52;50.93;;;8.80;;
1747;SDS011;871;47.034;15.394;2023-05-19T08:13:44;50.33;;;9.30;;
1747;SDS011;871;47.034;15.394;2023-05-19T08:19:11;48.50;;;8.10;;
1747;SDS011;871;47.034;15.394;2023-05-19T08:21:40;49.70;;;8.80;;
1747;SDS011;871;47.034;15.394;2023-05-19T08:24:07;54.63;;;9.10;;
1747;SDS011;871;47.034;15.394;2023-05-19T08:26:55;48.70;;;8.53;;
1747;SDS011;871;47.034;15.394;2023-05-19T08:29:42;47.20;;;8.50;;
1747;SDS011;871;47.034;15.394;2023-05-19T08:35:29;46.83;;;9.33;;
1747;SDS011;871;47.034;15.394;2023-05-19T08:38:01;45.60;;;9.00;;
1747;SDS011;871;47.034;15.394;2023-05-19T08:51:32;47.27;;;8.73;;
1747;SDS011;871;47.034;15.394;2023-05-19T08:54:31;45.93;;;9.03;;
1747;SDS011;871;47.034;15.394;2023-05-19T08:57:02;49.03;;;9.17;;
1747;SDS011;871;47.034;15.394;2023-05-19T08:59:51;55.03;;;11.07;;
1747;SDS011;871;47.034;15.394;2023-05-19T09:02:21;59.97;;;11.10;;
1747;SDS011;871;47.034;15.394;2023-05-19T09:04:50;49.97;;;10.13;;
1747;SDS011;871;47.034;15.394;2023-05-19T09:13:22;46.60;;;9.77;;
1747;SDS011;871;47.034;15.394;2023-05-19T09:16:05;54.43;;;10.20;;
1747;SDS011;871;47.034;15.394;2023-05-19T09:18:54;54.53;;;10.10;;
1747;SDS011;871;47.034;15.394;2023-05-19T09:21:41;48.47;;;8.33;;
1747;SDS011;871;47.034;15.394;2023-05-19T09:27:17;51.97;;;10.83;;
1747;SDS011;871;47.034;15.394;2023-05-19T09:29:48;48.00;;;9.13;;
1747;SDS011;871;47.034;15.394;2023-05-19T09:32:55;56.07;;;11.10;;
1747;SDS011;871;47.034;15.394;2023-05-19T09:35:28;50.43;;;9.57;;
1747;SDS011;871;47.034;15.394;2023-05-19T09:40:43;47.80;;;9.23;;
1747;SDS011;871;47.034;15.394;2023-05-19T09:43:28;45.37;;;9.20;;
1747;SDS011;871;47.034;15.394;2023-05-19T09:46:01;48.63;;;9.70;;
1747;SDS011;871;47.034;15.394;2023-05-19T09:49:07;48.07;;;8.90;;
1747;SDS011;871;47.034;15.394;2023-05-19T09:51:44;51.20;;;10.20;;
1747;SDS011;871;47.034;15.394;2023-05-19T09:54:24;52.40;;;9.17;;
1747;SDS011;871;47.034;15.394;2023-05-19T09:59:25;50.50;;;8.77;;
1747;SDS011;871;47.034;15.394;2023-05-19T10:02:13;50.53;;;9.70;;
1747;SDS011;871;47.034;15.394;2023-05-19T10:04:48;47.87;;;8.80;;
1747;SDS011;871;47.034;15.394;2023-05-19T10:07:36;48.70;;;9.07;;
1747;SDS011;871;47.034;15.394;2023-05-19T10:10:25;49.67;;;9.00;;
1747;SDS011;871;47.034;15.394;2023-05-19T10:13:01;50.90;;;9.47;;
1747;SDS011;871;47.034;15.394;2023-05-19T10:15:49;50.00;;;9.70;;
1747;SDS011;871;47.034;15.394;2023-05-19T10:18:35;50.03;;;10.30;;
1747;SDS011;871;47.034;15.394;2023-05-19T10:21:12;52.80;;;9.40;;
1747;SDS011;871;47.034;15.394;2023-05-19T10:23:50;47.00;;;9.20;;
1747;SDS011;871;47.034;15.394;2023-05-19T10:26:27;50.23;;;9.43;;
1747;SDS011;871;47.034;15.394;2023-05-19T10:28:53;45.27;;;8.20;;
1747;SDS011;871;47.034;15.394;2023-05-19T10:31:33;50.10;;;9.73;;
1747;SDS011;871;47.034;15.394;2023-05-19T10:40:15;44.90;;;7.23;;
1747;SDS011;871;47.034;15.394;2023-05-19T10:45:59;48.43;;;8.57;;
1747;SDS011;871;47.034;15.394;2023-05-19T10:48:33;46.40;;;7.10;;
1747;SDS011;871;47.034;15.394;2023-05-19T10:51:05;44.37;;;6.93;;
1747;SDS011;871;47.034;15.394;2023-05-19T10:59:44;43.73;;;5.40;;
1747;SDS011;871;47.034;15.394;2023-05-19T11:05:19;43.93;;;5.37;;
1747;SDS011;871;47.034;15.394;2023-05-19T11:08:02;41.77;;;4.77;;
1747;SDS011;871;47.034;15.394;2023-05-19T11:10:38;43.57;;;5.10;;
1747;SDS011;871;47.034;15.394;2023-05-19T11:13:41;41.97;;;5.47;;
1747;SDS011;871;47.034;15.394;2023-05-19T11:27:54;42.00;;;3.80;;
1747;SDS011;871;47.034;15.394;2023-05-19T11:33:37;42.80;;;4.43;;
1747;SDS011;871;47.034;15.394;2023-05-19T11:36:27;43.57;;;5.23;;
1747;SDS011;871;47.034;15.394;2023-05-19T11:39:23;45.57;;;5.23;;
1747;SDS011;871;47.034;15.394;2023-05-19T11:42:02;42.40;;;4.97;;
1747;SDS011;871;47.034;15.394;2023-05-19T11:44:49;42.40;;;4.90;;
1747;SDS011;871;47.034;15.394;2023-05-19T11:47:25;41.53;;;4.80;;
1747;SDS011;871;47.034;15.394;2023-05-19T11:49:55;40.90;;;4.43;;
1747;SDS011;871;47.034;15.394;2023-05-19T11:52:52;41.17;;;4.67;;
1747;SDS011;871;47.034;15.394;2023-05-19T11:55:41;44.30;;;5.37;;
1747;SDS011;871;47.034;15.394;2023-05-19T11:58:20;42.43;;;5.13;;
1747;SDS011;871;47.034;15.394;2023-05-19T12:00:52;42.27;;;4.70;;
1747;SDS011;871;47.034;15.394;2023-05-19T12:03:42;41.33;;;4.83;;
1747;SDS011;871;47.034;15.394;2023-05-19T12:06:30;47.20;;;5.20;;
1747;SDS011;871;47.034;15.394;2023-05-19T12:09:11;51.47;;;6.00;;
1747;SDS011;871;47.034;15.394;2023-05-19T12:11:40;42.17;;;4.63;;
1747;SDS011;871;47.034;15.394;2023-05-19T12:14:11;43.70;;;5.17;;
1747;SDS011;871;47.034;15.394;2023-05-19T12:16:48;45.60;;;4.83;;
1747;SDS011;871;47.034;15.394;2023-05-19T12:19:17;44.07;;;5.10;;
1747;SDS011;871;47.034;15.394;2023-05-19T12:22:06;42.27;;;5.13;;
1747;SDS011;871;47.034;15.394;2023-05-19T12:30:30;42.17;;;5.67;;
1747;SDS011;871;47.034;15.394;2023-05-19T12:33:12;42.07;;;5.60;;
1747;SDS011;871;47.034;15.394;2023-05-19T12:35:49;44.57;;;5.90;;
1747;SDS011;871;47.034;15.394;2023-05-19T12:38:21;43.00;;;5.80;;
1747;SDS011;871;47.034;15.394;2023-05-19T12:41:00;43.70;;;5.13;;
1747;SDS011;871;47.034;15.394;2023-05-19T12:43:39;42.60;;;5.73;;
1747;SDS011;871;47.034;15.394;2023-05-19T12:46:28;44.93;;;5.93;;
1747;SDS011;871;47.034;15.394;2023-05-19T12:49:08;44.67;;;5.63;;
1747;SDS011;871;47.034;15.394;2023-05-19T12:52:07;42.70;;;6.00;;
1747;SDS011;871;47.034;15.394;2023-05-19T12:54:58;43.20;;;5.63;;
1747;SDS011;871;47.034;15.394;2023-05-19T13:00:26;45.10;;;6.07;;
1747;SDS011;871;47.034;15.394;2023-05-19T13:06:05;44.20;;;6.10;;
1747;SDS011;871;47.034;15.394;2023-05-19T13:14:55;42.20;;;5.13;;
1747;SDS011;871;47.034;15.394;2023-05-19T13:17:37;44.00;;;6.20;;
1747;SDS011;871;47.034;15.394;2023-05-19T13:20:09;45.23;;;6.23;;
1747;SDS011;871;47.034;15.394;2023-05-19T13:23:14;44.53;;;6.80;;
1747;SDS011;871;47.034;15.394;2023-05-19T13:29:08;42.00;;;5.73;;
1747;SDS011;871;47.034;15.394;2023-05-19T13:31:41;46.30;;;6.00;;
1747;SDS011;871;47.034;15.394;2023-05-19T13:34:22;44.10;;;6.43;;
1747;SDS011;871;47.034;15.394;2023-05-19T13:36:58;44.37;;;5.17;;
1747;SDS011;871;47.034;15.394;2023-05-19T13:39:38;42.17;;;5.43;;
1747;SDS011;871;47.034;15.394;2023-05-19T13:42:35;43.50;;;5.30;;
1747;SDS011;871;47.034;15.394;2023-05-19T13:45:21;43.70;;;5.83;;
1747;SDS011;871;47.034;15.394;2023-05-19T13:51:21;42.53;;;5.60;;
1747;SDS011;871;47.034;15.394;2023-05-19T13:54:04;45.63;;;6.47;;
1747;SDS011;871;47.034;15.394;2023-05-19T14:00:14;44.70;;;6.07;;
1747;SDS011;871;47.034;15.394;2023-05-19T14:02:52;43.50;;;6.40;;
1747;SDS011;871;47.034;15.394;2023-05-19T14:05:28;43.63;;;5.30;;
1747;SDS011;871;47.034;15.394;2023-05-19T14:08:13;43.50;;;6.50;;
1747;SDS011;871;47.034;15.394;2023-05-19T14:10:49;43.17;;;5.50;;
1747;SDS011;871;47.034;15.394;2023-05-19T14:13:15;45.00;;;7.47;;
1747;SDS011;871;47.034;15.394;2023-05-19T14:16:01;43.13;;;6.27;;
1747;SDS011;871;47.034;15.394;2023-05-19T14:18:32;42.90;;;5.90;;
1747;SDS011;871;47.034;15.394;2023-05-19T14:21:57;47.07;;;8.03;;
1747;SDS011;871;47.034;15.394;2023-05-19T14:24:50;44.33;;;5.43;;
1747;SDS011;871;47.034;15.394;2023-05-19T14:27:39;45.53;;;6.60;;
1747;SDS011;871;47.034;15.394;2023-05-19T14:30:30;41.20;;;5.57;;
1747;SDS011;871;47.034;15.394;2023-05-19T14:33:02;46.67;;;7.47;;
1747;SDS011;871;47.034;15.394;2023-05-19T14:46:10;43.47;;;6.50;;
1747;SDS011;871;47.034;15.394;2023-05-19T14:48:58;44.07;;;6.43;;
1747;SDS011;871;47.034;15.394;2023-05-19T14:51:47;42.70;;;5.60;;
1747;SDS011;871;47.034;15.394;2023-05-19T14:54:35;43.63;;;5.50;;
1747;SDS011;871;47.034;15.394;2023-05-19T14:57:13;42.87;;;6.50;;
1747;SDS011;871;47.034;15.394;2023-05-19T15:02:44;43.27;;;6.00;;
1747;SDS011;871;47.034;15.394;2023-05-19T15:05:28;44.77;;;5.13;;
1747;SDS011;871;47.034;15.394;2023-05-19T15:11:08;45.43;;;5.67;;
1747;SDS011;871;47.034;15.394;2023-05-19T15:20:25;43.17;;;5.70;;
1747;SDS011;871;47.034;15.394;2023-05-19T15:23:25;41.50;;;5.37;;
1747;SDS011;871;47.034;15.394;2023-05-19T15:26:04;42.47;;;5.27;;
1747;SDS011;871;47.034;15.394;2023-05-19T15:28:59;42.63;;;5.50;;
1747;SDS011;871;47.034;15.394;2023-05-19T15:34:33;44.10;;;5.97;;
1747;SDS011;871;47.034;15.394;2023-05-19T15:39:56;43.00;;;6.30;;
1747;SDS011;871;47.034;15.394;2023-05-19T15:42:31;42.87;;;6.20;;
1747;SDS011;871;47.034;15.394;2023-05-19T15:48:18;41.57;;;5.70;;
1747;SDS011;871;47.034;15.394;2023-05-19T15:50:55;44.97;;;5.70;;
1747;SDS011;871;47.034;15.394;2023-05-19T15:53:46;42.03;;;5.60;;
1747;SDS011;871;47.034;15.394;2023-05-19T15:56:25;42.10;;;4.70;;
1747;SDS011;871;47.034;15.394;2023-05-19T15:59:15;47.47;;;5.20;;
1747;SDS011;871;47.034;15.394;2023-05-19T16:02:03;41.50;;;5.57;;
1747;SDS011;871;47.034;15.394;2023-05-19T16:04:55;46.53;;;8.80;;
1747;SDS011;871;47.034;15.394;2023-05-19T16:10:12;44.40;;;7.40;;
1747;SDS011;871;47.034;15.394;2023-05-19T16:12:51;42.50;;;5.67;;
1747;SDS011;871;47.034;15.394;2023-05-19T16:15:28;42.77;;;5.73;;
1747;SDS011;871;47.034;15.394;2023-05-19T16:20:59;41.67;;;5.43;;
1747;SDS011;871;47.034;15.394;2023-05-19T16:23:30;42.00;;;5.43;;
1747;SDS011;871;47.034;15.394;2023-05-19T16:25:57;42.47;;;4.87;;
1747;SDS011;871;47.034;15.394;2023-05-19T16:31:14;42.20;;;5.37;;
1747;SDS011;871;47.034;15.394;2023-05-19T16:33:55;41.20;;;5.00;;
1747;SDS011;871;47.034;15.394;2023-05-19T16:36:30;42.10;;;5.20;;
1747;SDS011;871;47.034;15.394;2023-05-19T16:39:19;41.47;;;4.60;;
1747;SDS011;871;47.034;15.394;2023-05-19T16:42:04;43.23;;;5.60;;
1747;SDS011;871;47.034;15.394;2023-05-19T16:44:56;41.90;;;5.43;;
1747;SDS011;871;47.034;15.394;2023-05-19T16:47:46;42.13;;;5.10;;
1747;SDS011;871;47.034;15.394;2023-05-19T16:50:27;44.50;;;6.30;;
1747;SDS011;871;47.034;15.394;2023-05-19T16:56:17;43.67;;;5.40;;
1747;SDS011;871;47.034;15.394;2023-05-19T16:58:46;43.90;;;5.53;;
1747;SDS011;871;47.034;15.394;2023-05-19T17:01:51;41.43;;;4.83;;
1747;SDS011;871;47.034;15.394;2023-05-19T17:07:35;44.60;;;5.80;;
1747;SDS011;871;47.034;15.394;2023-05-19T17:10:22;42.93;;;6.23;;
1747;SDS011;871;47.034;15.394;2023-05-19T17:12:53;46.43;;;5.60;;
1747;SDS011;871;47.034;15.394;2023-05-19T17:15:21;42.93;;;5.60;;
1747;SDS011;871;47.034;15.394;2023-05-19T17:18:09;42.50;;;5.70;;
1747;SDS011;871;47.034;15.394;2023-05-19T17:20:40;44.30;;;6.50;;
1747;SDS011;871;47.034;15.394;2023-05-19T17:23:14;42.37;;;5.60;;
1747;SDS011;871;47.034;15.394;2023-05-19T17:25:42;43.00;;;6.00;;
1747;SDS011;871;47.034;15.394;2023-05-19T17:28:17;42.00;;;5.80;;
1747;SDS011;871;47.034;15.394;2023-05-19T17:30:44;42.73;;;6.57;;
1747;SDS011;871;47.034;15.394;2023-05-19T17:33:17;41.60;;;5.03;;
1747;SDS011;871;47.034;15.394;2023-05-19T17:38:57;48.03;;;6.60;;
1747;SDS011;871;47.034;15.394;2023-05-19T17:41:23;42.60;;;6.33;;
1747;SDS011;871;47.034;15.394;2023-05-19T17:43:53;42.30;;;5.53;;
1747;SDS011;871;47.034;15.394;2023-05-19T17:46:47;44.80;;;6.13;;
1747;SDS011;871;47.034;15.394;2023-05-19T17:49:37;41.90;;;5.53;;
1747;SDS011;871;47.034;15.394;2023-05-19T17:52:44;43.70;;;5.90;;
1747;SDS011;871;47.034;15.394;2023-05-19T17:55:22;44.20;;;6.03;;
1747;SDS011;871;47.034;15.394;2023-05-19T17:57:53;41.90;;;6.07;;
1747;SDS011;871;47.034;15.394;2023-05-19T18:00:31;43.40;;;6.60;;
1747;SDS011;871;47.034;15.394;2023-05-19T18:03:10;42.17;;;6.20;;
1747;SDS011;871;47.034;15.394;2023-05-19T18:05:42;45.00;;;7.00;;
1747;SDS011;871;47.034;15.394;2023-05-19T18:10:45;43.87;;;6.60;;
1747;SDS011;871;47.034;15.394;2023-05-19T18:19:13;45.77;;;7.50;;
1747;SDS011;871;47.034;15.394;2023-05-19T18:21:48;47.07;;;7.10;;
1747;SDS011;871;47.034;15.394;2023-05-19T18:24:22;46.53;;;7.67;;
1747;SDS011;871;47.034;15.394;2023-05-19T18:27:04;46.37;;;7.37;;
1747;SDS011;871;47.034;15.394;2023-05-19T18:29:42;48.03;;;6.57;;
1747;SDS011;871;47.034;15.394;2023-05-19T18:36:11;47.00;;;7.43;;
1747;SDS011;871;47.034;15.394;2023-05-19T18:38:11;49.03;;;9.53;;
1747;SDS011;871;47.034;15.394;2023-05-19T18:40:37;45.10;;;7.17;;
1747;SDS011;871;47.034;15.394;2023-05-19T18:43:14;46.63;;;7.80;;
1747;SDS011;871;47.034;15.394;2023-05-19T18:50:57;44.63;;;8.20;;
1747;SDS011;871;47.034;15.394;2023-05-19T18:53:43;45.27;;;8.23;;
1747;SDS011;871;47.034;15.394;2023-05-19T18:59:33;44.60;;;7.80;;
1747;SDS011;871;47.034;15.394;2023-05-19T19:02:28;45.37;;;8.10;;
1747;SDS011;871;47.034;15.394;2023-05-19T19:13:59;45.17;;;6.63;;
1747;SDS011;871;47.034;15.394;2023-05-19T19:16:26;44.50;;;6.90;;
1747;SDS011;871;47.034;15.394;2023-05-19T19:19:10;47.20;;;8.10;;
1747;SDS011;871;47.034;15.394;2023-05-19T19:24:34;42.53;;;7.57;;
1747;SDS011;871;47.034;15.394;2023-05-19T19:27:11;44.00;;;6.80;;
1747;SDS011;871;47.034;15.394;2023-05-19T19:29:58;44.57;;;7.93;;
1747;SDS011;871;47.034;15.394;2023-05-19T19:32:48;44.27;;;6.90;;
1747;SDS011;871;47.034;15.394;2023-05-19T19:38:16;48.30;;;6.83;;
1747;SDS011;871;47.034;15.394;2023-05-19T19:41:04;43.30;;;6.50;;
1747;SDS011;871;47.034;15.394;2023-05-19T19:43:55;43.87;;;6.50;;
1747;SDS011;871;47.034;15.394;2023-05-19T19:46:39;43.30;;;6.50;;
1747;SDS011;871;47.034;15.394;2023-05-19T19:49:18;42.87;;;6.10;;
1747;SDS011;871;47.034;15.394;2023-05-19T19:52:07;43.97;;;7.47;;
1747;SDS011;871;47.034;15.394;2023-05-19T19:54:54;45.20;;;6.00;;
1747;SDS011;871;47.034;15.394;2023-05-19T20:00:43;45.20;;;7.50;;
1747;SDS011;871;47.034;15.394;2023-05-19T20:09:25;45.57;;;9.80;;
1747;SDS011;871;47.034;15.394;2023-05-19T20:15:01;43.10;;;7.03;;
1747;SDS011;871;47.034;15.394;2023-05-19T20:18:11;43.97;;;7.63;;
1747;SDS011;871;47.034;15.394;2023-05-19T20:20:51;44.50;;;7.17;;
1747;SDS011;871;47.034;15.394;2023-05-19T20:28:54;45.33;;;6.83;;
1747;SDS011;871;47.034;15.394;2023-05-19T20:35:03;43.93;;;7.10;;
1747;SDS011;871;47.034;15.394;2023-05-19T20:40:22;45.40;;;7.70;;
1747;SDS011;871;47.034;15.394;2023-05-19T20:43:06;44.30;;;6.93;;
1747;SDS011;871;47.034;15.394;2023-05-19T20:45:34;47.50;;;8.07;;
1747;SDS011;871;47.034;15.394;2023-05-19T20:51:20;44.50;;;8.20;;
1747;SDS011;871;47.034;15.394;2023-05-19T20:53:49;43.10;;;6.87;;
1747;SDS011;871;47.034;15.394;2023-05-19T20:56:48;43.07;;;7.50;;
